Time;durP1;ratioP1;P1;durP2;ratioP2;P2;SDS_P1;SDS_P2;PMS_P1;PMS_P2;Temp;Humidity;BMP_temperature;BMP_pressure;BME280_temperature;BME280_humidity;BME280_pressure;Samples;Min_cycle;Max_cycle;Signal;HPM_P1;HPM_P2
2022/05/31 00:00:32;;;;;;;4.03;2.45;;;9.20;99.90;;;;;;4973105;28;20503;-77
2022/05/31 00:02:59;;;;;;;3.45;3.03;;;9.30;99.90;;;;;;4977812;28;20050;-76
2022/05/31 00:05:26;;;;;;;4.13;3.03;;;9.20;99.90;;;;;;4972596;28;20042;-77
2022/05/31 00:07:51;;;;;;;3.80;2.00;;;9.20;99.90;;;;;;4976978;28;20046;-77
2022/05/31 00:10:17;;;;;;;8.52;3.08;;;9.20;99.90;;;;;;4981077;28;20097;-76
2022/05/31 00:12:44;;;;;;;3.38;3.05;;;9.10;99.90;;;;;;4966486;28;20145;-77
2022/05/31 00:15:13;;;;;;;9.57;3.05;;;9.20;99.90;;;;;;4968422;28;21004;-75
2022/05/31 00:17:40;;;;;;;3.05;2.47;;;9.10;99.90;;;;;;4965979;28;20574;-74
2022/05/31 00:20:07;;;;;;;4.95;2.78;;;8.90;99.90;;;;;;4969625;28;20426;-76
2022/05/31 00:22:34;;;;;;;4.20;2.50;;;9.00;99.90;;;;;;4978470;28;20042;-77
2022/05/31 00:25:00;;;;;;;2.67;2.47;;;8.90;99.90;;;;;;4966037;28;20126;-76
2022/05/31 00:27:26;;;;;;;7.13;3.53;;;8.90;99.90;;;;;;4966749;28;20082;-76
2022/05/31 00:29:53;;;;;;;3.60;3.15;;;9.00;99.90;;;;;;4967935;28;20100;-76
2022/05/31 00:32:33;;;;;;;4.53;3.67;;;9.10;99.90;;;;;;4971034;28;20093;-77
2022/05/31 00:35:06;;;;;;;3.80;3.38;;;9.00;99.90;;;;;;4969971;28;20050;-77
2022/05/31 00:37:33;;;;;;;3.63;2.95;;;9.00;99.90;;;;;;4977281;28;20082;-77
2022/05/31 00:39:59;;;;;;;3.42;2.83;;;9.10;99.90;;;;;;4967718;28;20428;-77
2022/05/31 00:42:25;;;;;;;3.85;3.40;;;9.10;99.90;;;;;;4986754;28;20043;-78
2022/05/31 00:44:51;;;;;;;4.70;3.20;;;9.00;99.90;;;;;;4983475;28;20051;-77
2022/05/31 00:47:31;;;;;;;3.33;2.97;;;9.10;99.90;;;;;;4967158;28;20617;-77
2022/05/31 00:50:16;;;;;;;4.10;2.72;;;9.00;99.90;;;;;;4969553;28;20142;-76
2022/05/31 00:52:46;;;;;;;4.40;3.42;;;9.00;99.90;;;;;;4977769;28;20125;-77
2022/05/31 00:55:15;;;;;;;;;;;8.90;99.90;;;;;;4973710;28;20054;-77
2022/05/31 00:57:48;;;;;;;4.22;3.05;;;9.00;99.90;;;;;;4970240;28;20040;-77
2022/05/31 01:00:15;;;;;;;3.05;2.67;;;9.00;99.90;;;;;;4973641;28;20041;-76
2022/05/31 01:02:43;;;;;;;5.75;3.40;;;8.90;99.90;;;;;;4965422;28;20511;-79
2022/05/31 01:05:11;;;;;;;4.32;3.28;;;8.90;99.90;;;;;;4974253;28;20390;-77
2022/05/31 01:07:37;;;;;;;4.55;2.95;;;8.80;99.90;;;;;;4979931;28;20101;-77
2022/05/31 01:10:05;;;;;;;3.30;2.67;;;8.80;99.90;;;;;;4966397;28;20785;-77
2022/05/31 01:12:32;;;;;;;2.67;2.47;;;8.70;99.90;;;;;;4947606;28;20054;-78
2022/05/31 01:15:00;;;;;;;3.88;3.42;;;8.70;99.90;;;;;;4965620;28;20615;-78
2022/05/31 01:17:26;;;;;;;3.45;3.15;;;8.70;99.90;;;;;;4962573;28;20039;-78
2022/05/31 01:19:55;;;;;;;3.53;3.03;;;8.70;99.90;;;;;;4967085;28;20046;-77
2022/05/31 01:22:40;;;;;;;3.75;3.13;;;8.60;99.90;;;;;;4985844;28;20054;-75
2022/05/31 01:25:14;;;;;;;4.95;3.38;;;8.60;99.90;;;;;;4980771;28;20042;-75
2022/05/31 01:27:52;;;;;;;5.65;3.17;;;8.60;99.90;;;;;;4976711;28;20046;-76
2022/05/31 01:30:18;;;;;;;2.88;2.40;;;8.60;99.90;;;;;;4966354;28;20046;-76
2022/05/31 01:33:07;;;;;;;4.60;3.42;;;8.60;99.90;;;;;;4982331;28;20054;-75
2022/05/31 01:35:34;;;;;;;3.85;2.65;;;8.70;99.90;;;;;;4966704;28;20046;-75
2022/05/31 01:38:10;;;;;;;6.55;3.75;;;8.70;99.90;;;;;;4960712;28;20050;-75
2022/05/31 01:40:42;;;;;;;4.03;2.58;;;8.70;99.90;;;;;;4977689;28;20101;-77
2022/05/31 01:43:07;;;;;;;4.93;2.65;;;8.50;99.90;;;;;;4964698;28;20278;-74
2022/05/31 01:45:41;;;;;;;5.60;3.63;;;8.60;99.90;;;;;;4993218;23;20054;-78
2022/05/31 01:48:07;;;;;;;4.10;3.20;;;8.50;99.90;;;;;;4965856;28;20030;-75
2022/05/31 01:50:34;;;;;;;4.05;3.22;;;8.40;99.90;;;;;;4983969;28;20488;-76
2022/05/31 01:53:01;;;;;;;2.70;2.50;;;8.40;99.90;;;;;;5001510;28;20561;-76
2022/05/31 01:55:29;;;;;;;6.55;3.10;;;8.30;99.90;;;;;;4974041;28;20042;-76
2022/05/31 01:57:59;;;;;;;8.20;4.00;;;8.40;99.90;;;;;;4970532;28;20065;-76
2022/05/31 02:00:26;;;;;;;5.32;3.55;;;8.50;99.90;;;;;;4997168;28;20527;-77
2022/05/31 02:02:56;;;;;;;5.68;3.10;;;8.50;99.90;;;;;;5002597;28;20057;-77
2022/05/31 02:05:21;;;;;;;3.92;3.05;;;8.50;99.90;;;;;;4987771;28;20038;-75
2022/05/31 02:07:58;;;;;;;4.20;3.30;;;8.50;99.90;;;;;;4985476;28;20107;-73
2022/05/31 02:10:25;;;;;;;4.72;3.63;;;8.40;99.90;;;;;;4987781;28;20042;-76
2022/05/31 02:12:51;;;;;;;4.35;3.45;;;8.40;99.90;;;;;;4983650;28;20099;-75
2022/05/31 02:15:18;;;;;;;3.97;2.80;;;8.40;99.90;;;;;;4984009;28;20048;-76
2022/05/31 02:17:44;;;;;;;4.22;3.58;;;8.50;99.90;;;;;;5002639;28;20050;-75
2022/05/31 02:20:10;;;;;;;3.80;3.40;;;8.50;99.90;;;;;;4986018;28;20396;-75
2022/05/31 02:22:36;;;;;;;4.55;3.28;;;8.60;99.90;;;;;;5001115;28;20050;-76
2022/05/31 02:25:02;;;;;;;6.65;3.47;;;8.60;99.90;;;;;;4984796;28;20050;-75
2022/05/31 02:27:27;;;;;;;5.60;3.15;;;8.60;99.90;;;;;;4986494;28;20049;-77
2022/05/31 02:29:53;;;;;;;5.65;2.97;;;8.60;99.90;;;;;;4995642;28;20476;-77
2022/05/31 02:32:19;;;;;;;5.88;3.47;;;8.60;99.90;;;;;;4996848;28;20042;-76
2022/05/31 02:34:47;;;;;;;3.03;2.78;;;8.60;99.90;;;;;;4983154;28;20058;-76
2022/05/31 02:37:13;;;;;;;4.20;3.80;;;8.60;99.90;;;;;;4984784;28;20046;-76
2022/05/31 02:39:40;;;;;;;4.15;3.75;;;8.50;99.90;;;;;;4986441;28;20038;-78
2022/05/31 02:42:06;;;;;;;4.55;2.80;;;8.50;99.90;;;;;;5004765;28;20034;-78
2022/05/31 02:44:33;;;;;;;3.90;3.53;;;8.50;99.90;;;;;;4999499;28;20056;-78
2022/05/31 02:46:59;;;;;;;5.22;2.70;;;8.60;99.90;;;;;;4981706;28;20117;-76
2022/05/31 02:49:24;;;;;;;3.22;2.95;;;8.60;99.90;;;;;;4989809;28;20139;-75
2022/05/31 02:51:50;;;;;;;3.67;2.80;;;8.60;99.90;;;;;;4983924;28;20034;-75
2022/05/31 02:54:18;;;;;;;10.27;3.38;;;8.60;99.90;;;;;;4989928;28;20038;-75
2022/05/31 02:56:46;;;;;;;4.82;3.05;;;8.70;99.90;;;;;;4985046;28;20058;-75
2022/05/31 02:59:12;;;;;;;3.38;2.70;;;8.70;99.90;;;;;;4993878;28;20100;-75
2022/05/31 03:01:40;;;;;;;4.80;3.22;;;8.60;99.90;;;;;;4982374;28;20050;-74
2022/05/31 03:04:07;;;;;;;5.35;3.20;;;8.60;99.90;;;;;;4993947;28;20499;-75
2022/05/31 03:06:33;;;;;;;3.33;2.88;;;8.50;99.90;;;;;;5004336;28;20128;-76
2022/05/31 03:08:59;;;;;;;4.75;2.83;;;8.60;99.90;;;;;;4987676;28;20400;-76
2022/05/31 03:11:39;;;;;;;2.65;2.28;;;8.60;99.90;;;;;;4982926;28;20133;-76
2022/05/31 03:14:08;;;;;;;5.80;4.10;;;8.60;99.90;;;;;;4980881;28;20054;-76
2022/05/31 03:16:36;;;;;;;2.88;2.53;;;8.70;99.90;;;;;;4983749;28;20050;-76
2022/05/31 03:19:06;;;;;;;6.40;3.40;;;8.70;99.90;;;;;;4982470;28;20452;-77
2022/05/31 03:21:45;;;;;;;4.57;2.80;;;8.80;99.90;;;;;;5004145;28;20034;-76
2022/05/31 03:24:16;;;;;;;3.45;2.20;;;8.90;99.90;;;;;;4991523;28;20103;-77
2022/05/31 03:26:43;;;;;;;7.60;2.85;;;8.80;99.90;;;;;;5003661;28;20046;-77
2022/05/31 03:29:10;;;;;;;4.25;3.00;;;8.80;99.90;;;;;;5002237;28;20419;-76
2022/05/31 03:31:37;;;;;;;4.22;2.72;;;8.70;99.90;;;;;;5002046;28;20109;-77
2022/05/31 03:34:03;;;;;;;3.97;3.30;;;8.80;99.90;;;;;;4980649;28;20074;-74
2022/05/31 03:36:28;;;;;;;9.48;3.30;;;8.80;99.90;;;;;;4981702;28;20068;-76
2022/05/31 03:38:54;;;;;;;3.78;3.38;;;8.80;99.90;;;;;;4971959;28;20038;-76
2022/05/31 03:41:20;;;;;;;5.72;3.53;;;8.90;99.90;;;;;;5003995;28;20038;-76
2022/05/31 03:43:46;;;;;;;6.10;3.05;;;8.90;99.90;;;;;;4993487;28;20488;-77
2022/05/31 03:46:15;;;;;;;3.60;2.92;;;8.80;99.90;;;;;;4985853;28;20389;-76
2022/05/31 03:48:42;;;;;;;9.27;3.45;;;8.80;99.90;;;;;;4986711;28;20054;-77
2022/05/31 03:51:10;;;;;;;3.25;2.60;;;8.90;99.90;;;;;;4995380;28;20625;-74
2022/05/31 03:53:36;;;;;;;5.90;3.53;;;8.90;99.90;;;;;;4985568;28;20453;-76
2022/05/31 03:56:07;;;;;;;4.68;3.05;;;8.90;99.90;;;;;;5003231;28;20081;-76
2022/05/31 03:58:33;;;;;;;5.57;2.97;;;9.00;99.90;;;;;;5007425;28;20053;-76
2022/05/31 04:00:59;;;;;;;4.20;2.88;;;9.00;99.90;;;;;;5001785;28;20046;-76
2022/05/31 04:03:25;;;;;;;10.63;3.17;;;9.00;99.90;;;;;;4991652;28;20049;-76
2022/05/31 04:05:52;;;;;;;3.40;3.10;;;9.00;99.90;;;;;;4985516;28;20046;-76
2022/05/31 04:08:19;;;;;;;6.60;3.67;;;9.10;99.90;;;;;;4984569;28;20050;-76
2022/05/31 04:10:45;;;;;;;4.35;3.38;;;9.10;99.90;;;;;;4987616;28;20042;-76
2022/05/31 04:13:12;;;;;;;5.10;2.78;;;9.10;99.90;;;;;;4994452;28;20471;-76
2022/05/31 04:15:38;;;;;;;3.42;3.13;;;9.00;99.90;;;;;;4987209;28;20569;-76
2022/05/31 04:18:05;;;;;;;3.45;3.13;;;9.00;99.90;;;;;;4986133;28;20077;-75
2022/05/31 04:20:31;;;;;;;5.47;3.80;;;9.00;99.90;;;;;;4990202;28;20046;-76
2022/05/31 04:25:41;;;;;;;5.85;3.65;;;9.10;99.90;;;;;;4986183;28;20167;-77
2022/05/31 04:28:07;;;;;;;4.97;3.38;;;9.10;99.90;;;;;;5006144;28;20606;-76
2022/05/31 04:30:33;;;;;;;2.83;2.55;;;9.20;99.90;;;;;;4986708;28;20046;-76
2022/05/31 04:32:59;;;;;;;4.18;3.78;;;9.20;99.90;;;;;;4984109;28;20053;-75
2022/05/31 04:35:24;;;;;;;4.63;2.58;;;9.20;99.90;;;;;;4984860;28;20097;-76
2022/05/31 04:37:50;;;;;;;10.98;5.15;;;9.20;99.90;;;;;;4985635;28;20475;-76
2022/05/31 04:40:15;;;;;;;5.57;3.22;;;9.20;99.90;;;;;;4996290;28;20050;-75
2022/05/31 04:42:42;;;;;;;28.73;3.60;;;9.20;99.90;;;;;;5006175;28;20053;-75
2022/05/31 04:45:08;;;;;;;6.22;4.28;;;9.30;99.90;;;;;;4985362;28;20062;-73
2022/05/31 04:47:34;;;;;;;5.50;2.90;;;9.30;99.90;;;;;;4978034;28;20050;-75
2022/05/31 04:50:01;;;;;;;3.78;3.47;;;9.30;99.90;;;;;;4984858;28;20046;-77
2022/05/31 04:52:26;;;;;;;6.60;3.60;;;9.40;99.90;;;;;;4999023;28;20053;-77
2022/05/31 04:54:52;;;;;;;4.18;3.38;;;9.30;99.90;;;;;;4991921;28;20120;-75
2022/05/31 04:57:18;;;;;;;4.32;3.17;;;9.30;99.90;;;;;;5006265;28;20049;-75
2022/05/31 04:59:45;;;;;;;7.63;3.90;;;9.40;99.90;;;;;;4994428;28;20057;-76
2022/05/31 05:02:11;;;;;;;4.13;3.72;;;9.40;99.90;;;;;;4988180;28;20081;-74
2022/05/31 05:04:37;;;;;;;6.85;3.42;;;9.50;99.90;;;;;;4986960;28;20045;-73
2022/05/31 05:07:03;;;;;;;3.53;3.22;;;9.50;99.90;;;;;;4985668;28;20042;-73
2022/05/31 05:09:28;;;;;;;4.90;3.65;;;9.50;99.90;;;;;;4985277;28;20067;-75
2022/05/31 05:11:54;;;;;;;4.38;2.83;;;9.60;99.90;;;;;;4985919;28;20129;-72
2022/05/31 05:14:19;;;;;;;5.80;3.53;;;9.60;99.90;;;;;;4983774;28;20378;-72
2022/05/31 05:16:46;;;;;;;5.60;3.65;;;9.60;99.90;;;;;;4985471;28;20042;-73
2022/05/31 05:19:12;;;;;;;4.03;3.22;;;9.70;99.90;;;;;;4982274;28;20046;-73
2022/05/31 05:21:38;;;;;;;2.97;2.67;;;9.70;99.90;;;;;;4982625;28;20050;-73
2022/05/31 05:24:04;;;;;;;4.78;3.72;;;9.70;99.90;;;;;;4984459;28;20531;-75
2022/05/31 05:26:30;;;;;;;5.78;3.78;;;9.70;99.90;;;;;;5002262;28;20113;-73
2022/05/31 05:31:41;;;;;;;4.93;3.08;;;9.80;99.90;;;;;;5002151;28;20060;-73
2022/05/31 05:34:08;;;;;;;5.45;3.75;;;9.90;99.90;;;;;;4995703;28;20640;-73
2022/05/31 05:36:34;;;;;;;8.40;3.72;;;9.90;99.90;;;;;;4994626;28;20117;-74
2022/05/31 05:38:59;;;;;;;4.20;3.25;;;9.90;99.90;;;;;;4983029;28;20457;-74
2022/05/31 05:41:28;;;;;;;3.80;3.20;;;9.90;99.90;;;;;;5004487;28;20412;-73
2022/05/31 05:43:53;;;;;;;5.25;3.10;;;10.00;99.90;;;;;;4985372;28;20050;-79
2022/05/31 05:46:21;;;;;;;5.32;3.17;;;10.10;99.90;;;;;;4995934;28;20075;-78
2022/05/31 05:48:47;;;;;;;3.85;3.10;;;10.10;99.90;;;;;;4998483;28;20050;-79
2022/05/31 05:51:20;;;;;;;3.30;3.00;;;10.10;99.90;;;;;;4984218;28;20074;-78
2022/05/31 05:53:46;;;;;;;3.75;3.17;;;10.20;99.90;;;;;;5005320;28;20054;-74
2022/05/31 05:56:13;;;;;;;5.05;2.58;;;10.20;99.90;;;;;;5001648;28;20140;-74
2022/05/31 05:58:40;;;;;;;3.13;2.83;;;10.30;99.90;;;;;;4987660;28;20150;-74
2022/05/31 06:01:16;;;;;;;3.75;3.00;;;10.40;99.90;;;;;;4980589;28;20058;-73
2022/05/31 06:03:50;;;;;;;3.50;3.20;;;10.40;99.90;;;;;;4984151;28;20068;-73
2022/05/31 06:06:17;;;;;;;5.90;3.45;;;10.40;99.90;;;;;;4992894;28;20057;-74
2022/05/31 06:08:47;;;;;;;5.43;3.50;;;10.60;99.90;;;;;;5000760;28;20050;-73
2022/05/31 06:11:23;;;;;;;4.97;3.20;;;10.60;99.90;;;;;;4987691;28;20412;-73
2022/05/31 06:13:51;;;;;;;5.18;2.63;;;10.70;99.90;;;;;;4979627;28;20042;-74
2022/05/31 06:16:19;;;;;;;3.33;3.03;;;10.80;99.90;;;;;;4984123;28;20067;-75
2022/05/31 06:18:50;;;;;;;4.15;3.75;;;10.80;99.90;;;;;;4985349;28;20046;-74
2022/05/31 06:21:18;;;;;;;5.53;2.92;;;10.90;99.90;;;;;;5001588;28;20038;-74
2022/05/31 06:23:44;;;;;;;2.88;2.33;;;11.00;99.90;;;;;;4996074;28;20072;-74
2022/05/31 06:26:11;;;;;;;5.22;3.40;;;11.20;99.90;;;;;;4981610;28;20450;-74
2022/05/31 06:28:37;;;;;;;5.20;2.88;;;11.20;99.90;;;;;;4989076;28;20485;-75
2022/05/31 06:31:03;;;;;;;5.43;3.50;;;11.40;99.90;;;;;;4982156;28;20042;-74
2022/05/31 06:33:28;;;;;;;4.88;3.42;;;11.50;99.90;;;;;;4987394;28;20045;-76
2022/05/31 06:35:54;;;;;;;4.75;3.30;;;11.50;99.90;;;;;;4993611;28;20043;-76
2022/05/31 06:38:19;;;;;;;4.20;3.50;;;11.50;99.90;;;;;;4988031;28;20045;-75
2022/05/31 06:40:45;;;;;;;3.15;2.42;;;11.70;99.90;;;;;;4986261;28;20081;-75
2022/05/31 06:43:11;;;;;;;4.65;3.28;;;11.70;99.90;;;;;;4998298;28;20481;-78
2022/05/31 06:45:36;;;;;;;3.03;2.83;;;11.60;99.90;;;;;;5002136;28;20050;-77
2022/05/31 06:48:02;;;;;;;4.40;2.63;;;11.80;99.90;;;;;;5000255;28;20586;-76
2022/05/31 06:50:29;;;;;;;2.92;2.63;;;11.80;99.90;;;;;;4987646;28;20081;-75
2022/05/31 06:58:24;;;;;;;4.85;3.10;;;13.60;99.90;;;;;;4993684;28;20090;-75
2022/05/31 07:00:50;;;;;;;4.93;2.55;;;13.20;99.90;;;;;;4983991;28;20821;-76
2022/05/31 07:03:15;;;;;;;4.18;2.63;;;13.10;99.90;;;;;;4997816;28;20405;-76
2022/05/31 07:05:41;;;;;;;4.38;2.65;;;13.10;99.90;;;;;;5002604;28;20081;-78
2022/05/31 07:08:07;;;;;;;7.40;3.03;;;13.00;99.90;;;;;;5001918;28;20530;-76
2022/05/31 07:10:33;;;;;;;6.40;3.30;;;13.20;99.90;;;;;;4993054;28;20104;-78
2022/05/31 07:12:58;;;;;;;5.32;2.30;;;13.00;99.90;;;;;;4986897;28;20815;-79
2022/05/31 07:15:25;;;;;;;5.55;3.30;;;12.70;99.90;;;;;;4982140;28;20120;-78
2022/05/31 07:17:51;;;;;;;3.35;2.80;;;12.80;99.90;;;;;;4968706;28;20078;-76
2022/05/31 07:20:17;;;;;;;2.88;2.60;;;13.10;99.90;;;;;;4994308;28;20135;-75
2022/05/31 07:22:42;;;;;;;3.20;2.85;;;13.20;99.90;;;;;;4995896;28;20057;-79
2022/05/31 07:25:09;;;;;;;3.30;3.00;;;13.20;99.90;;;;;;4989085;28;20120;-76
2022/05/31 07:27:35;;;;;;;5.18;2.90;;;12.90;99.90;;;;;;5004239;28;20054;-76
2022/05/31 07:30:02;;;;;;;5.03;2.58;;;13.40;99.90;;;;;;4987757;28;20050;-75
2022/05/31 07:32:27;;;;;;;2.72;1.83;;;13.40;99.90;;;;;;5006490;28;20160;-78
2022/05/31 07:34:54;;;;;;;7.03;3.05;;;13.70;99.90;;;;;;5005813;28;20243;-86
2022/05/31 07:37:19;;;;;;;5.05;3.10;;;13.40;99.90;;;;;;4996115;28;20100;-76
2022/05/31 07:39:47;;;;;;;4.80;2.40;;;13.60;99.90;;;;;;4986258;28;20038;-77
2022/05/31 07:42:13;;;;;;;4.22;2.85;;;14.40;99.90;;;;;;4987939;28;20046;-76
2022/05/31 07:44:39;;;;;;;9.45;2.97;;;14.30;99.90;;;;;;4999412;28;20092;-75
2022/05/31 07:47:05;;;;;;;5.38;2.67;;;14.00;99.90;;;;;;4984973;28;20437;-77
2022/05/31 07:49:31;;;;;;;5.32;2.53;;;14.10;99.90;;;;;;4984989;28;20101;-80
2022/05/31 07:51:57;;;;;;;8.75;2.13;;;14.00;99.90;;;;;;4986372;28;20054;-78
2022/05/31 07:54:22;;;;;;;6.80;2.58;;;14.30;99.90;;;;;;4987612;28;20038;-79
2022/05/31 07:56:48;;;;;;;5.95;2.85;;;14.40;99.90;;;;;;4984582;28;20034;-76
2022/05/31 07:59:14;;;;;;;6.85;3.15;;;14.80;99.90;;;;;;4983709;28;20050;-76
2022/05/31 08:01:40;;;;;;;4.47;2.63;;;15.00;99.90;;;;;;4985044;28;20092;-76
2022/05/31 08:04:06;;;;;;;2.90;1.80;;;15.20;99.90;;;;;;4997565;28;20046;-77
2022/05/31 08:06:34;;;;;;;4.38;1.95;;;15.60;99.90;;;;;;4998692;28;20054;-77
2022/05/31 08:08:59;;;;;;;3.72;2.92;;;15.60;99.90;;;;;;4984101;28;20513;-77
2022/05/31 08:11:32;;;;;;;5.43;2.53;;;15.80;99.90;;;;;;4984096;28;20125;-77
2022/05/31 08:13:58;;;;;;;3.30;2.35;;;15.90;99.90;;;;;;4985211;28;20057;-77
2022/05/31 08:16:26;;;;;;;3.13;2.25;;;15.60;99.90;;;;;;5000544;28;20392;-77
2022/05/31 08:18:55;;;;;;;4.07;2.42;;;15.70;99.90;;;;;;5001548;28;20046;-77
2022/05/31 08:21:27;;;;;;;3.88;2.45;;;15.70;99.90;;;;;;4985354;28;20121;-75
2022/05/31 08:23:55;;;;;;;3.47;2.00;;;16.00;99.90;;;;;;4985520;28;20101;-76
2022/05/31 08:26:21;;;;;;;8.38;2.65;;;15.80;99.90;;;;;;4999980;28;20420;-76
2022/05/31 08:28:46;;;;;;;4.50;2.28;;;16.20;99.90;;;;;;4997335;28;20049;-77
2022/05/31 08:31:14;;;;;;;6.15;3.03;;;16.50;99.90;;;;;;4995336;28;20198;-77
2022/05/31 08:33:40;;;;;;;4.07;2.42;;;16.40;99.90;;;;;;5004258;28;20054;-76
2022/05/31 08:36:07;;;;;;;6.85;3.70;;;15.80;99.90;;;;;;4984207;28;20031;-76
2022/05/31 08:38:33;;;;;;;4.57;2.22;;;16.10;99.90;;;;;;4983919;28;20058;-75
2022/05/31 08:41:11;;;;;;;6.22;2.42;;;16.20;99.90;;;;;;4998095;28;20385;-76
2022/05/31 08:43:47;;;;;;;5.45;2.80;;;16.40;99.90;;;;;;5000947;28;20043;-77
2022/05/31 08:46:50;;;;;;;3.85;2.40;;;16.30;99.90;;;;;;4999236;28;20058;-77
2022/05/31 08:53:02;;;;;;;5.18;3.10;;;16.70;99.90;;;;;;4983686;28;20513;-75
2022/05/31 08:58:28;;;;;;;7.53;2.95;;;16.70;99.90;;;;;;4992493;28;20421;-75
2022/05/31 09:00:57;;;;;;;7.78;4.40;;;16.80;99.90;;;;;;4981624;28;20050;-75
2022/05/31 09:03:56;;;;;;;6.55;3.20;;;16.90;99.90;;;;;;4985470;28;20520;-75
2022/05/31 09:06:42;;;;;;;6.38;3.55;;;16.60;99.90;;;;;;4965340;28;20169;-75
2022/05/31 09:09:14;;;;;;;11.23;4.13;;;16.30;99.90;;;;;;5005006;28;20042;-76
2022/05/31 09:12:04;;;;;;;5.07;3.45;;;16.50;99.90;;;;;;4987337;28;20853;-76
2022/05/31 09:14:53;;;;;;;7.95;4.45;;;16.80;99.90;;;;;;4990838;28;20045;-80
2022/05/31 09:17:47;;;;;;;6.38;5.03;;;16.70;99.90;;;;;;4985194;28;20065;-80
2022/05/31 09:20:28;;;;;;;9.07;3.80;;;16.50;99.90;;;;;;4988327;28;20043;-80
2022/05/31 09:22:54;;;;;;;6.60;3.78;;;16.50;99.90;;;;;;4981399;28;20050;-80
2022/05/31 09:25:20;;;;;;;16.35;4.90;;;16.90;99.90;;;;;;4986366;28;20065;-77
2022/05/31 09:27:50;;;;;;;5.50;3.53;;;16.80;99.90;;;;;;4984242;28;20456;-77
2022/05/31 09:30:34;;;;;;;5.43;3.47;;;17.40;99.90;;;;;;4972878;28;20034;-78
2022/05/31 09:33:28;;;;;;;10.68;3.97;;;17.00;99.90;;;;;;4981456;28;20129;-80
2022/05/31 09:36:09;;;;;;;9.65;3.83;;;17.20;99.90;;;;;;4979802;28;20066;-80
2022/05/31 09:38:51;;;;;;;7.82;4.18;;;17.70;99.90;;;;;;4985564;28;20043;-79
2022/05/31 09:41:26;;;;;;;6.78;4.47;;;17.90;99.90;;;;;;4990758;28;20445;-77
2022/05/31 09:44:23;;;;;;;10.52;4.38;;;18.20;99.90;;;;;;4989411;28;20099;-78
2022/05/31 09:47:27;;;;;;;4.90;3.13;;;17.80;99.90;;;;;;4989150;28;20062;-80
2022/05/31 09:49:54;;;;;;;8.10;3.75;;;17.30;99.90;;;;;;4933641;29;20605;-79
2022/05/31 09:52:22;;;;;;;7.25;4.03;;;17.00;99.90;;;;;;4921602;29;20087;-76
2022/05/31 09:58:09;;;;;;;6.13;2.60;;;16.70;99.90;;;;;;4979622;28;20088;-78
2022/05/31 10:01:02;;;;;;;6.45;3.45;;;16.70;99.90;;;;;;4969875;28;20090;-79
2022/05/31 10:03:39;;;;;;;4.45;2.65;;;16.80;99.90;;;;;;4968942;28;20054;-80
2022/05/31 10:06:18;;;;;;;5.57;2.67;;;16.50;99.90;;;;;;4979105;28;20133;-79
2022/05/31 10:08:47;;;;;;;7.25;3.83;;;16.40;99.90;;;;;;4976888;28;20053;-80
2022/05/31 10:11:20;;;;;;;8.75;3.40;;;16.40;99.90;;;;;;4984011;28;20043;-79
2022/05/31 10:14:00;;;;;;;8.02;3.80;;;16.30;99.90;;;;;;4959840;28;20058;-80
2022/05/31 10:16:32;;;;;;;5.65;3.80;;;16.20;99.90;;;;;;4980085;28;20042;-80
2022/05/31 10:19:04;;;;;;;7.53;4.38;;;16.00;99.90;;;;;;4983527;28;20049;-79
2022/05/31 10:21:37;;;;;;;6.82;3.42;;;16.20;99.90;;;;;;4986602;28;20118;-77
2022/05/31 10:24:14;;;;;;;5.75;3.83;;;16.30;99.90;;;;;;4980356;28;20042;-76
2022/05/31 10:27:05;;;;;;;5.88;3.55;;;16.60;99.90;;;;;;4984827;28;20617;-75
2022/05/31 10:29:40;;;;;;;7.78;3.90;;;16.70;99.90;;;;;;4981888;28;20046;-77
2022/05/31 10:32:24;;;;;;;8.25;4.75;;;16.90;99.90;;;;;;4979835;28;20069;-75
2022/05/31 10:35:07;;;;;;;7.43;3.95;;;16.60;99.90;;;;;;4983491;28;20056;-72
2022/05/31 10:37:33;;;;;;;5.93;3.47;;;16.70;99.90;;;;;;4983192;28;20117;-78
2022/05/31 10:40:15;;;;;;;6.90;3.75;;;16.80;99.90;;;;;;4982070;28;20138;-80
2022/05/31 10:42:44;;;;;;;4.88;4.05;;;16.50;99.90;;;;;;4990353;28;20082;-78
2022/05/31 10:45:26;;;;;;;7.40;3.83;;;16.50;99.90;;;;;;4982963;28;20133;-88
2022/05/31 10:47:55;;;;;;;7.78;4.25;;;16.50;99.90;;;;;;5003235;28;20053;-81
2022/05/31 10:50:33;;;;;;;9.18;5.40;;;16.40;99.90;;;;;;4991684;28;20038;-80
2022/05/31 10:53:30;;;;;;;5.50;4.07;;;16.40;99.90;;;;;;4983412;28;20054;-79
2022/05/31 10:56:04;;;;;;;11.60;4.72;;;16.10;99.90;;;;;;4985999;28;20081;-79
2022/05/31 10:58:38;;;;;;;7.57;4.70;;;16.10;99.90;;;;;;4982674;28;20416;-78
2022/05/31 11:01:33;;;;;;;9.48;4.75;;;16.10;99.90;;;;;;4982849;28;20043;-78
2022/05/31 11:04:22;;;;;;;4.93;4.13;;;15.80;99.90;;;;;;4953722;28;20062;-79
2022/05/31 11:07:21;;;;;;;6.60;4.10;;;16.00;99.90;;;;;;4981627;28;20050;-75
2022/05/31 11:13:12;;;;;;;8.20;3.03;;;16.20;99.90;;;;;;5000446;28;20054;-79
2022/05/31 11:15:44;;;;;;;9.32;5.28;;;17.10;99.90;;;;;;4982985;28;20077;-79
2022/05/31 11:18:25;;;;;;;8.00;3.95;;;17.70;99.90;;;;;;4982764;28;20113;-81
2022/05/31 11:20:56;;;;;;;15.63;4.53;;;17.80;99.90;;;;;;4984329;28;20177;-80
2022/05/31 11:23:41;;;;;;;6.13;4.10;;;17.80;99.90;;;;;;4982605;28;20529;-79
2022/05/31 11:26:15;;;;;;;8.15;4.40;;;17.40;99.90;;;;;;4964646;28;20042;-79
2022/05/31 11:28:41;;;;;;;6.00;3.88;;;17.50;99.90;;;;;;4964523;28;20407;-79
2022/05/31 11:31:37;;;;;;;8.20;3.83;;;17.30;99.90;;;;;;5002632;28;20125;-78
2022/05/31 11:34:24;;;;;;;9.15;3.97;;;17.20;99.90;;;;;;4994821;28;20069;-79
2022/05/31 11:36:50;;;;;;;9.38;5.03;;;17.40;99.90;;;;;;4964267;28;20537;-79
2022/05/31 11:39:18;;;;;;;12.85;5.85;;;16.80;99.90;;;;;;4974355;28;20081;-78
2022/05/31 11:42:21;;;;;;;10.88;4.43;;;16.80;99.90;;;;;;4991350;28;20073;-80
2022/05/31 11:45:08;;;;;;;5.97;3.92;;;16.90;99.90;;;;;;4983327;28;20078;-73
2022/05/31 11:48:09;;;;;;;7.72;5.07;;;17.00;99.90;;;;;;4994212;28;20054;-77
2022/05/31 11:50:45;;;;;;;5.45;3.63;;;16.90;99.90;;;;;;4983691;28;20054;-77
2022/05/31 11:53:31;;;;;;;7.20;4.38;;;16.90;99.90;;;;;;4982757;28;20043;-77
2022/05/31 11:56:13;;;;;;;7.90;4.70;;;16.90;99.90;;;;;;5004118;28;20038;-81
2022/05/31 11:58:52;;;;;;;9.07;4.95;;;16.80;99.90;;;;;;5001714;28;20262;-74
2022/05/31 12:01:40;;;;;;;7.68;4.20;;;16.70;99.90;;;;;;4997851;28;20058;-81
2022/05/31 12:04:27;;;;;;;5.30;4.80;;;16.70;99.90;;;;;;4986131;28;20076;-79
2022/05/31 12:07:12;;;;;;;7.93;4.35;;;16.60;99.90;;;;;;4986009;28;20134;-80
2022/05/31 12:09:52;;;;;;;8.23;4.57;;;16.70;99.90;;;;;;4988189;28;20054;-79
2022/05/31 12:12:31;;;;;;;6.70;4.03;;;16.70;99.90;;;;;;4992177;28;20042;-82
2022/05/31 12:15:21;;;;;;;7.53;4.47;;;16.70;99.90;;;;;;4986721;28;20065;-82
2022/05/31 12:18:23;;;;;;;8.63;4.95;;;16.60;99.90;;;;;;4999355;28;20052;-79
2022/05/31 12:21:02;;;;;;;6.88;3.72;;;16.60;99.90;;;;;;4985543;28;20052;-79
2022/05/31 12:23:27;;;;;;;7.03;3.38;;;16.50;99.90;;;;;;4985020;28;20046;-80
2022/05/31 12:25:56;;;;;;;8.95;4.25;;;16.30;99.90;;;;;;5001916;28;20523;-81
2022/05/31 12:28:33;;;;;;;5.55;4.05;;;16.20;99.90;;;;;;5006170;28;20494;-80
2022/05/31 12:31:23;;;;;;;6.15;4.65;;;16.20;99.90;;;;;;4999041;28;20669;-80
2022/05/31 12:33:49;;;;;;;7.20;4.40;;;16.10;99.90;;;;;;4981353;28;20461;-81
2022/05/31 12:36:21;;;;;;;7.63;3.90;;;16.10;99.90;;;;;;4990548;28;20034;-79
2022/05/31 12:39:00;;;;;;;6.07;4.32;;;16.20;99.90;;;;;;4986418;28;20054;-80
2022/05/31 12:41:42;;;;;;;51.25;7.78;;;16.10;99.90;;;;;;4987552;28;20042;-80
2022/05/31 12:44:31;;;;;;;31.52;5.78;;;16.10;99.90;;;;;;4985396;28;20050;-80
2022/05/31 12:47:13;;;;;;;6.07;4.65;;;16.20;99.90;;;;;;4983671;28;20050;-79
2022/05/31 12:50:09;;;;;;;7.05;5.57;;;16.20;99.90;;;;;;4999259;28;20120;-76
2022/05/31 12:55:25;;;;;;;11.55;5.30;;;15.90;99.90;;;;;;4986771;28;20474;-76
2022/05/31 13:01:15;;;;;;;13.60;4.82;;;15.90;99.90;;;;;;4989120;28;20401;-81
2022/05/31 13:03:44;;;;;;;8.73;4.68;;;15.90;99.90;;;;;;4954704;28;20057;-79
2022/05/31 13:06:21;;;;;;;8.27;4.72;;;16.00;99.90;;;;;;4994608;28;20463;-79
2022/05/31 13:08:56;;;;;;;8.00;5.25;;;16.10;99.90;;;;;;5006526;28;20547;-77
2022/05/31 13:20:40;;;;;;;15.77;3.75;;;16.60;99.90;;;;;;4983889;28;20046;-80
2022/05/31 13:23:19;;;;;;;5.50;3.35;;;16.90;99.90;;;;;;4984288;28;20034;-76
2022/05/31 13:26:00;;;;;;;9.07;3.85;;;17.00;99.90;;;;;;4984203;28;20511;-76
2022/05/31 13:28:30;;;;;;;8.50;4.00;;;17.20;99.90;;;;;;4997308;28;20053;-77
2022/05/31 13:30:59;;;;;;;10.50;4.53;;;17.80;99.90;;;;;;4984633;28;20483;-80
2022/05/31 13:33:26;;;;;;;8.70;3.15;;;17.90;99.90;;;;;;4993203;28;20046;-77
2022/05/31 13:36:02;;;;;;;9.00;3.28;;;18.30;99.90;;;;;;4981487;28;20168;-75
2022/05/31 13:38:35;;;;;;;6.38;3.78;;;18.10;99.90;;;;;;4978929;28;20057;-85
2022/05/31 13:41:03;;;;;;;5.28;3.95;;;18.10;99.90;;;;;;4999348;28;20085;-76
2022/05/31 13:43:40;;;;;;;6.47;3.45;;;17.80;99.90;;;;;;4990527;28;20092;-78
2022/05/31 13:46:45;;;;;;;7.97;3.55;;;17.40;99.90;;;;;;5003960;28;20054;-77
2022/05/31 13:49:17;;;;;;;8.18;3.70;;;17.40;99.90;;;;;;4960708;28;20050;-76
2022/05/31 13:52:01;;;;;;;6.25;4.13;;;17.20;99.90;;;;;;4977563;28;20042;-80